createdAt,value
2018-10-05T00:00:45.503Z,11.88
2018-10-05T00:03:13.682Z,11.88
2018-10-05T00:05:41.828Z,11.80
2018-10-05T00:08:09.978Z,11.73
2018-10-05T00:10:38.127Z,11.76
2018-10-05T00:13:06.322Z,11.69
2018-10-05T00:15:34.498Z,11.68
2018-10-05T00:18:02.632Z,11.71
2018-10-05T00:20:30.832Z,11.61
2018-10-05T00:22:58.929Z,11.64
2018-10-05T00:25:27.079Z,11.58
2018-10-05T00:27:55.225Z,11.47
2018-10-05T00:30:23.406Z,11.35
2018-10-05T00:32:51.562Z,11.44
2018-10-05T00:35:19.724Z,11.26
2018-10-05T00:37:49.937Z,11.04
2018-10-05T00:40:18.134Z,11.12
2018-10-05T00:45:36.402Z,11.13
2018-10-05T00:48:04.572Z,11.15
2018-10-05T00:50:32.748Z,11.08
2018-10-05T00:53:01.058Z,11.05
2018-10-05T00:55:29.130Z,10.96
2018-10-05T00:57:57.303Z,10.94
2018-10-05T01:00:25.645Z,10.84
2018-10-05T01:02:53.853Z,11.05
2018-10-05T01:05:22.006Z,10.93
2018-10-05T01:07:50.271Z,10.74
2018-10-05T01:10:18.496Z,10.83
2018-10-05T01:12:46.645Z,10.91
2018-10-05T01:15:14.925Z,10.83
2018-10-05T01:17:43.072Z,11.05
2018-10-05T01:20:11.247Z,10.96
2018-10-05T01:22:39.398Z,11.03
2018-10-05T01:25:07.573Z,10.96
2018-10-05T01:27:35.746Z,10.98
2018-10-05T01:30:03.902Z,10.97
2018-10-05T01:32:32.059Z,11.11
2018-10-05T01:35:00.229Z,11.15
2018-10-05T01:37:28.405Z,11.28
2018-10-05T01:39:56.540Z,11.24
2018-10-05T01:42:24.701Z,11.18
2018-10-05T01:44:52.833Z,11.26
2018-10-05T01:47:20.985Z,10.92
2018-10-05T01:49:49.123Z,11.05
2018-10-05T01:52:17.316Z,10.97
2018-10-05T01:54:45.500Z,11.19
2018-10-05T01:57:13.639Z,11.05
2018-10-05T01:59:41.796Z,10.98
2018-10-05T02:02:09.994Z,11.04
2018-10-05T02:04:38.150Z,11.11
2018-10-05T02:07:06.286Z,11.09
2018-10-05T02:09:34.457Z,10.91
2018-10-05T02:12:02.711Z,10.92
2018-10-05T02:14:30.903Z,10.92
2018-10-05T02:16:59.131Z,11.02
2018-10-05T02:19:27.287Z,11.01
2018-10-05T02:21:55.667Z,10.96
2018-10-05T02:24:23.853Z,10.94
2018-10-05T02:26:52.010Z,10.96
2018-10-05T02:29:20.151Z,10.94
2018-10-05T02:31:48.311Z,10.98
2018-10-05T02:34:16.454Z,10.89
2018-10-05T02:36:44.597Z,10.90
2018-10-05T02:39:13.503Z,10.83
2018-10-05T02:41:42.034Z,10.86
2018-10-05T02:44:10.115Z,10.79
2018-10-05T02:46:38.321Z,10.73
2018-10-05T02:49:06.648Z,10.94
2018-10-05T02:51:34.844Z,10.86
2018-10-05T02:54:02.998Z,10.92
2018-10-05T02:56:31.130Z,10.84
2018-10-05T02:58:59.276Z,10.90
2018-10-05T03:01:38.723Z,10.63
2018-10-05T03:04:06.879Z,10.79
2018-10-05T03:06:35.034Z,10.75
2018-10-05T03:09:03.414Z,10.71
2018-10-05T03:11:31.588Z,10.71
2018-10-05T03:13:59.739Z,10.58
2018-10-05T03:16:27.914Z,10.79
2018-10-05T03:18:56.092Z,10.69
2018-10-05T03:21:24.335Z,10.60
2018-10-05T03:23:52.478Z,10.66
2018-10-05T03:26:20.636Z,10.52
2018-10-05T03:28:48.780Z,10.53
2018-10-05T03:31:16.939Z,10.57
2018-10-05T03:33:45.099Z,10.57
2018-10-05T03:36:13.368Z,10.48
2018-10-05T03:38:41.516Z,10.41
2018-10-05T03:41:09.672Z,10.13
2018-10-05T03:43:37.802Z,10.14
2018-10-05T03:46:06.032Z,10.28
2018-10-05T03:48:34.199Z,10.15
2018-10-05T03:51:02.391Z,10.20
2018-10-05T03:53:30.566Z,10.11
2018-10-05T03:55:58.736Z,10.14
2018-10-05T03:58:26.909Z,10.43
2018-10-05T04:00:55.051Z,10.38
2018-10-05T04:03:23.320Z,10.22
2018-10-05T04:05:51.482Z,10.34
2018-10-05T04:08:19.634Z,10.29
2018-10-05T04:10:47.807Z,10.35
2018-10-05T04:13:15.952Z,10.22
2018-10-05T04:15:44.128Z,10.42
2018-10-05T04:18:12.299Z,10.14
2018-10-05T04:20:40.474Z,10.21
2018-10-05T04:23:08.626Z,10.37
2018-10-05T04:25:36.773Z,10.23
2018-10-05T04:28:04.925Z,10.19
2018-10-05T04:30:33.061Z,10.27
2018-10-05T04:33:01.331Z,10.10
2018-10-05T04:35:29.521Z,10.09
2018-10-05T04:37:57.679Z,10.11
2018-10-05T04:40:25.823Z,9.84
2018-10-05T04:42:53.992Z,10.15
2018-10-05T04:45:22.166Z,10.14
2018-10-05T04:47:50.327Z,10.06
2018-10-05T04:50:18.497Z,10.10
2018-10-05T04:52:46.634Z,9.79
2018-10-05T04:55:14.789Z,9.80
2018-10-05T04:57:42.935Z,9.90
2018-10-05T05:00:11.092Z,9.57
2018-10-05T05:02:39.343Z,9.49
2018-10-05T05:05:07.491Z,9.46
2018-10-05T05:07:35.656Z,9.50
2018-10-05T05:10:04.036Z,9.58
2018-10-05T05:12:32.183Z,9.65
2018-10-05T05:15:00.348Z,9.50
2018-10-05T05:17:28.506Z,9.84
2018-10-05T05:19:56.662Z,9.67
2018-10-05T05:22:24.810Z,9.79
2018-10-05T05:24:52.973Z,9.32
2018-10-05T05:27:21.132Z,9.56
2018-10-05T05:29:49.266Z,9.44
2018-10-05T05:32:17.434Z,9.68
2018-10-05T05:34:45.606Z,9.51
2018-10-05T05:37:13.777Z,9.75
2018-10-05T05:39:41.975Z,9.39
2018-10-05T05:42:10.091Z,9.50
2018-10-05T05:44:38.289Z,9.67
2018-10-05T05:47:06.703Z,9.76
2018-10-05T05:49:34.838Z,9.83
2018-10-05T05:52:03.024Z,9.73
2018-10-05T05:54:31.228Z,9.72
2018-10-05T05:56:59.308Z,9.71
2018-10-05T05:59:27.656Z,9.85
2018-10-05T06:01:55.797Z,9.92
2018-10-05T06:04:23.943Z,10.04
2018-10-05T06:06:52.094Z,10.05
2018-10-05T06:09:20.295Z,9.93
2018-10-05T06:11:48.466Z,10.03
2018-10-05T06:14:16.620Z,10.03
2018-10-05T06:16:44.779Z,10.13
2018-10-05T06:19:12.911Z,10.21
2018-10-05T06:21:41.168Z,10.25
2018-10-05T06:24:09.247Z,10.37
2018-10-05T06:26:37.416Z,10.35
2018-10-05T06:29:05.595Z,10.45
2018-10-05T06:31:33.757Z,10.45
2018-10-05T06:34:01.933Z,10.55
2018-10-05T06:36:30.103Z,10.61
2018-10-05T06:38:58.352Z,10.67
2018-10-05T06:41:26.455Z,10.52
2018-10-05T06:43:54.608Z,10.60
2018-10-05T06:46:22.815Z,10.51
2018-10-05T06:48:51.006Z,10.71
2018-10-05T06:51:19.210Z,10.96
2018-10-05T06:53:47.370Z,11.10
2018-10-05T06:56:15.526Z,11.09
2018-10-05T06:58:43.840Z,11.11
2018-10-05T07:01:11.989Z,11.64
2018-10-05T07:03:40.151Z,12.02
2018-10-05T07:06:08.374Z,12.20
2018-10-05T07:08:36.539Z,12.25
2018-10-05T07:11:04.674Z,12.60
2018-10-05T07:13:32.852Z,12.61
2018-10-05T07:16:01.003Z,12.85
2018-10-05T07:18:29.187Z,13.53
2018-10-05T07:20:57.341Z,13.18
2018-10-05T07:23:25.510Z,13.54
2018-10-05T07:25:53.666Z,14.21
2018-10-05T07:28:21.891Z,14.40
2018-10-05T07:30:49.968Z,14.28
2018-10-05T07:33:18.131Z,14.53
2018-10-05T07:35:46.309Z,14.99
2018-10-05T07:38:14.460Z,15.50
2018-10-05T07:40:42.627Z,15.99
2018-10-05T07:43:10.788Z,16.16
2018-10-05T07:45:38.936Z,16.40
2018-10-05T07:48:07.126Z,16.27
2018-10-05T07:50:35.308Z,17.18
2018-10-05T07:53:03.482Z,17.34
2018-10-05T07:55:31.649Z,18.21
2018-10-05T07:57:59.920Z,17.19
2018-10-05T08:00:27.979Z,17.39
2018-10-05T08:02:56.191Z,16.88
2018-10-05T08:05:24.401Z,16.79
2018-10-05T08:07:52.522Z,17.81
2018-10-05T08:10:20.682Z,17.04
2018-10-05T08:12:48.850Z,17.35
2018-10-05T08:15:17.004Z,16.47
2018-10-05T08:17:45.166Z,16.12
2018-10-05T08:20:13.329Z,16.35
2018-10-05T08:22:41.480Z,17.47
2018-10-05T08:25:09.639Z,16.41
2018-10-05T08:27:37.854Z,16.38
2018-10-05T08:30:06.705Z,16.81
2018-10-05T08:32:34.883Z,17.13
2018-10-05T08:35:03.090Z,17.39
2018-10-05T08:37:31.255Z,17.31
2018-10-05T08:39:59.488Z,17.32
2018-10-05T08:42:27.578Z,16.71
2018-10-05T08:44:55.751Z,17.12
2018-10-05T08:47:23.940Z,16.74
2018-10-05T08:49:52.131Z,16.56
2018-10-05T08:52:20.334Z,16.49
2018-10-05T08:54:48.450Z,16.25
2018-10-05T08:57:17.700Z,16.48
2018-10-05T08:59:45.848Z,16.60
2018-10-05T09:02:14.006Z,16.38
2018-10-05T09:04:42.169Z,16.50
2018-10-05T09:07:10.354Z,16.67
2018-10-05T09:09:38.529Z,16.61
2018-10-05T09:12:06.727Z,16.81
2018-10-05T09:14:34.881Z,16.71
2018-10-05T09:17:03.045Z,16.78
2018-10-05T09:19:31.273Z,17.07
2018-10-05T09:21:59.437Z,17.15
2018-10-05T09:24:27.616Z,17.12
2018-10-05T09:26:55.754Z,17.32
2018-10-05T09:29:23.947Z,17.26
2018-10-05T09:31:52.098Z,17.26
2018-10-05T09:34:20.287Z,17.29
2018-10-05T09:36:48.443Z,17.26
2018-10-05T09:39:16.636Z,16.99
2018-10-05T09:41:44.816Z,17.16
2018-10-05T09:44:13.105Z,17.22
2018-10-05T09:46:41.414Z,17.23
2018-10-05T09:49:09.594Z,17.25
2018-10-05T09:51:37.808Z,17.33
2018-10-05T09:54:05.975Z,17.60
2018-10-05T09:56:34.150Z,17.57
2018-10-05T09:59:02.320Z,17.66
2018-10-05T10:01:35.799Z,17.82
2018-10-05T10:04:04.000Z,17.77
2018-10-05T10:06:32.405Z,17.83
2018-10-05T10:09:00.580Z,17.91
2018-10-05T10:11:28.760Z,17.90
2018-10-05T10:13:57.032Z,17.87
2018-10-05T10:16:25.163Z,17.91
2018-10-05T10:18:53.355Z,17.87
2018-10-05T10:21:21.574Z,17.82
2018-10-05T10:23:49.747Z,18.03
2018-10-05T10:26:17.907Z,17.91
2018-10-05T10:28:46.166Z,18.18
2018-10-05T10:31:14.259Z,18.12
2018-10-05T10:33:42.510Z,18.13
2018-10-05T10:36:10.634Z,18.23
2018-10-05T10:38:38.826Z,18.37
2018-10-05T10:41:07.051Z,18.40
2018-10-05T10:43:35.207Z,18.51
2018-10-05T10:46:03.397Z,18.46
2018-10-05T10:48:31.554Z,18.70
2018-10-05T10:50:59.747Z,18.77
2018-10-05T10:53:27.902Z,18.81
2018-10-05T10:55:56.074Z,18.90
2018-10-05T10:58:24.307Z,18.87
2018-10-05T11:00:52.532Z,18.71
2018-10-05T11:03:20.655Z,18.83
2018-10-05T11:05:48.821Z,18.81
2018-10-05T11:08:17.021Z,19.12
2018-10-05T11:10:45.187Z,19.13
2018-10-05T11:13:13.339Z,19.18
2018-10-05T11:15:41.500Z,19.19
2018-10-05T11:18:09.656Z,19.24
2018-10-05T11:20:37.849Z,19.35
2018-10-05T11:23:06.248Z,19.41
2018-10-05T11:25:34.358Z,19.14
2018-10-05T11:28:02.576Z,19.44
2018-10-05T11:30:30.753Z,19.39
2018-10-05T11:32:59.100Z,19.68
2018-10-05T11:35:27.255Z,19.63
2018-10-05T11:37:55.459Z,19.63
2018-10-05T11:40:23.664Z,19.61
2018-10-05T11:42:51.817Z,19.70
2018-10-05T11:45:19.970Z,19.94
2018-10-05T11:47:48.145Z,19.78
2018-10-05T11:50:16.284Z,19.92
2018-10-05T11:52:44.449Z,20.03
2018-10-05T11:55:12.681Z,20.04
2018-10-05T11:57:40.871Z,20.06
2018-10-05T12:00:11.162Z,20.00
2018-10-05T12:02:39.392Z,20.25
2018-10-05T12:05:07.584Z,20.32
2018-10-05T12:07:35.716Z,20.22
2018-10-05T12:10:03.984Z,20.41
2018-10-05T12:12:32.147Z,20.57
2018-10-05T12:15:00.316Z,20.62
2018-10-05T12:17:28.501Z,20.79
2018-10-05T12:19:56.712Z,20.78
2018-10-05T12:22:24.943Z,20.99
2018-10-05T12:24:53.111Z,20.79
2018-10-05T12:27:21.357Z,21.03
2018-10-05T12:29:51.570Z,21.12
2018-10-05T12:32:19.748Z,20.84
2018-10-05T12:34:48.003Z,20.91
2018-10-05T12:37:16.334Z,21.08
2018-10-05T12:39:44.441Z,21.13
2018-10-05T12:42:12.623Z,21.42
2018-10-05T12:44:40.840Z,21.21
2018-10-05T12:47:09.091Z,21.43
2018-10-05T12:49:37.275Z,21.45
2018-10-05T12:52:05.474Z,21.46
2018-10-05T12:54:33.635Z,21.63
2018-10-05T12:57:02.387Z,21.73
2018-10-05T12:59:30.592Z,21.69
2018-10-05T13:01:58.755Z,21.65
2018-10-05T13:04:26.978Z,21.45
2018-10-05T13:06:55.143Z,21.49
2018-10-05T13:09:23.384Z,21.60
2018-10-05T13:11:51.526Z,21.61
2018-10-05T13:14:19.680Z,21.87
2018-10-05T13:16:47.839Z,21.95
2018-10-05T13:19:15.995Z,22.10
2018-10-05T13:21:44.221Z,22.18
2018-10-05T13:24:12.379Z,22.01
2018-10-05T13:26:40.590Z,22.02
2018-10-05T13:29:08.774Z,22.21
2018-10-05T13:31:36.951Z,22.40
2018-10-05T13:34:05.190Z,22.41
2018-10-05T13:36:33.276Z,22.31
2018-10-05T13:39:01.446Z,22.47
2018-10-05T13:41:29.588Z,22.31
2018-10-05T13:43:57.769Z,22.44
2018-10-05T13:46:25.950Z,22.52
2018-10-05T13:48:54.130Z,22.33
2018-10-05T13:51:22.297Z,22.33
2018-10-05T13:53:50.448Z,22.51
2018-10-05T13:56:18.628Z,22.38
2018-10-05T13:58:47.383Z,22.35
2018-10-05T14:01:16.169Z,22.38
2018-10-05T14:03:44.360Z,22.35
2018-10-05T14:06:12.591Z,22.60
2018-10-05T14:08:40.708Z,22.66
2018-10-05T14:11:08.896Z,22.81
2018-10-05T14:13:37.047Z,22.80
2018-10-05T14:16:05.249Z,22.82
2018-10-05T14:18:33.436Z,22.80
2018-10-05T14:21:01.597Z,22.92
2018-10-05T14:23:29.824Z,22.92
2018-10-05T14:25:57.986Z,22.78
2018-10-05T14:28:26.202Z,22.75
2018-10-05T14:30:54.355Z,22.62
2018-10-05T14:33:23.592Z,22.66
2018-10-05T14:35:51.716Z,22.75
2018-10-05T14:38:19.862Z,22.59
2018-10-05T14:40:47.994Z,22.79
2018-10-05T14:43:16.219Z,22.91
2018-10-05T14:45:44.468Z,22.90
2018-10-05T14:48:12.633Z,22.70
2018-10-05T14:50:40.865Z,22.65
2018-10-05T14:53:09.075Z,22.73
2018-10-05T14:55:37.276Z,22.68
2018-10-05T14:58:06.017Z,22.73
2018-10-05T15:00:35.063Z,22.77
2018-10-05T15:03:03.211Z,22.66
2018-10-05T15:05:31.551Z,22.60
2018-10-05T15:07:59.738Z,22.62
2018-10-05T15:10:27.859Z,22.69
2018-10-05T15:12:56.106Z,22.70
2018-10-05T15:15:24.235Z,22.73
2018-10-05T15:17:52.499Z,22.64
2018-10-05T15:20:20.647Z,22.68
2018-10-05T15:22:48.852Z,22.56
2018-10-05T15:25:17.072Z,22.50
2018-10-05T15:27:45.198Z,22.46
2018-10-05T15:30:13.467Z,22.32
2018-10-05T15:32:41.702Z,22.46
2018-10-05T15:35:09.799Z,22.43
2018-10-05T15:37:37.942Z,22.31
2018-10-05T15:40:06.213Z,22.30
2018-10-05T15:42:34.359Z,22.28
2018-10-05T15:45:02.541Z,22.23
2018-10-05T15:47:30.714Z,22.19
2018-10-05T15:49:58.914Z,22.17
2018-10-05T15:52:27.132Z,22.02
2018-10-05T15:54:55.322Z,21.97
2018-10-05T15:57:23.491Z,22.02
2018-10-05T15:59:51.651Z,21.98
2018-10-05T16:02:19.833Z,22.04
2018-10-05T16:04:48.019Z,21.96
2018-10-05T16:07:16.239Z,21.79
2018-10-05T16:09:44.482Z,21.88
2018-10-05T16:12:12.703Z,21.74
2018-10-05T16:14:40.807Z,21.87
2018-10-05T16:17:08.921Z,21.81
2018-10-05T16:19:37.046Z,21.72
2018-10-05T16:22:05.202Z,21.74
2018-10-05T16:24:42.931Z,21.65
2018-10-05T16:27:11.727Z,21.37
2018-10-05T16:29:39.927Z,21.59
2018-10-05T16:32:09.109Z,21.52
2018-10-05T16:34:37.273Z,21.43
2018-10-05T16:37:05.766Z,21.33
2018-10-05T16:39:34.183Z,21.22
2018-10-05T16:42:02.398Z,21.24
2018-10-05T16:44:30.735Z,21.20
2018-10-05T16:46:58.959Z,21.10
2018-10-05T16:49:27.157Z,21.10
2018-10-05T16:51:55.350Z,20.98
2018-10-05T16:54:23.524Z,20.92
2018-10-05T16:56:51.664Z,20.83
2018-10-05T16:59:19.846Z,20.72
2018-10-05T17:01:48.000Z,20.70
2018-10-05T17:04:16.216Z,20.58
2018-10-05T17:06:48.000Z,20.54
2018-10-05T17:09:16.299Z,20.49
2018-10-05T17:11:45.534Z,20.37
2018-10-05T17:14:13.765Z,20.19
2018-10-05T17:16:41.957Z,20.13
2018-10-05T17:19:10.153Z,20.10
2018-10-05T17:21:38.331Z,19.91
2018-10-05T17:24:07.553Z,19.84
2018-10-05T17:26:35.756Z,19.74
2018-10-05T17:29:03.919Z,19.73
2018-10-05T17:31:32.082Z,19.55
2018-10-05T17:34:00.225Z,19.52
2018-10-05T17:36:28.383Z,19.49
2018-10-05T17:38:56.552Z,19.48
2018-10-05T17:41:24.723Z,19.48
2018-10-05T17:43:52.887Z,19.35
2018-10-05T17:46:21.105Z,19.21
2018-10-05T17:48:49.269Z,19.23
2018-10-05T17:51:17.479Z,19.18
2018-10-05T17:53:45.651Z,19.05
2018-10-05T17:56:13.880Z,18.92
2018-10-05T17:58:42.008Z,18.98
2018-10-05T18:01:10.219Z,19.01
2018-10-05T18:03:38.376Z,18.74
2018-10-05T18:06:06.560Z,18.82
2018-10-05T18:08:34.741Z,18.80
2018-10-05T18:11:02.974Z,18.73
2018-10-05T18:13:31.210Z,18.56
2018-10-05T18:15:59.374Z,18.47
2018-10-05T18:18:27.531Z,18.48
2018-10-05T18:20:55.732Z,18.50
2018-10-05T18:23:24.003Z,18.30
2018-10-05T18:25:52.254Z,18.32
2018-10-05T18:28:20.440Z,18.20
2018-10-05T18:30:48.646Z,18.24
2018-10-05T18:33:16.816Z,18.08
2018-10-05T18:35:45.011Z,18.02
2018-10-05T18:38:13.224Z,17.96
2018-10-05T18:40:41.424Z,17.96
2018-10-05T18:43:09.578Z,17.96
2018-10-05T18:45:37.779Z,17.94
2018-10-05T18:48:05.973Z,18.03
2018-10-05T18:50:34.149Z,17.88
2018-10-05T18:53:02.315Z,17.76
2018-10-05T18:55:30.498Z,17.68
2018-10-05T18:57:58.771Z,17.69
2018-10-05T19:00:27.020Z,17.59
2018-10-05T19:02:55.334Z,17.54
2018-10-05T19:05:23.494Z,17.37
2018-10-05T19:07:51.721Z,17.33
2018-10-05T19:10:19.907Z,17.30
2018-10-05T19:12:48.091Z,17.21
2018-10-05T19:15:16.310Z,17.12
2018-10-05T19:17:44.482Z,17.19
2018-10-05T19:20:12.652Z,16.94
2018-10-05T19:22:40.881Z,17.09
2018-10-05T19:25:09.116Z,17.11
2018-10-05T19:27:37.287Z,17.02
2018-10-05T19:30:05.699Z,16.83
2018-10-05T19:32:33.854Z,16.85
2018-10-05T19:35:02.063Z,16.97
2018-10-05T19:37:30.236Z,16.77
2018-10-05T19:39:58.434Z,16.92
2018-10-05T19:42:26.627Z,16.99
2018-10-05T19:44:54.822Z,16.97
2018-10-05T19:47:23.031Z,16.81
2018-10-05T19:49:51.219Z,16.82
2018-10-05T19:52:19.422Z,16.88
2018-10-05T19:54:47.606Z,16.68
2018-10-05T19:57:15.799Z,16.71
2018-10-05T19:59:43.969Z,16.79
2018-10-05T20:02:13.210Z,16.69
2018-10-05T20:04:41.388Z,16.75
2018-10-05T20:07:09.762Z,16.76
2018-10-05T20:09:37.943Z,16.70
2018-10-05T20:12:06.206Z,16.59
2018-10-05T20:14:34.462Z,16.57
2018-10-05T20:17:02.758Z,16.52
2018-10-05T20:19:31.329Z,16.48
2018-10-05T20:21:59.511Z,16.53
2018-10-05T20:24:27.733Z,16.33
2018-10-05T20:26:55.860Z,16.46
2018-10-05T20:29:24.028Z,16.26
2018-10-05T20:31:52.193Z,16.17
2018-10-05T20:34:20.350Z,16.37
2018-10-05T20:36:50.123Z,16.19
2018-10-05T20:39:18.129Z,16.22
2018-10-05T20:41:46.306Z,16.31
2018-10-05T20:44:14.491Z,16.22
2018-10-05T20:46:43.510Z,16.23
2018-10-05T20:49:11.752Z,16.06
2018-10-05T20:51:39.956Z,16.02
2018-10-05T20:54:08.106Z,16.07
2018-10-05T20:56:36.281Z,15.84
2018-10-05T20:59:04.465Z,15.60
2018-10-05T21:01:32.598Z,15.67
2018-10-05T21:04:00.773Z,15.57
2018-10-05T21:06:28.947Z,15.68
2018-10-05T21:08:57.123Z,15.79
2018-10-05T21:11:25.449Z,15.81
2018-10-05T21:13:55.551Z,15.69
2018-10-05T21:16:23.744Z,15.84
2018-10-05T21:18:52.940Z,15.84
2018-10-05T21:21:21.095Z,15.58
2018-10-05T21:23:49.267Z,15.65
2018-10-05T21:26:17.434Z,15.69
2018-10-05T21:28:45.643Z,15.53
2018-10-05T21:31:13.821Z,15.78
2018-10-05T21:33:45.738Z,15.64
2018-10-05T21:36:15.964Z,15.52
2018-10-05T21:38:44.167Z,15.42
2018-10-05T21:41:12.352Z,15.46
2018-10-05T21:43:40.518Z,15.48
2018-10-05T21:46:08.726Z,15.23
2018-10-05T21:48:36.911Z,15.33
2018-10-05T21:51:07.146Z,15.27
2018-10-05T21:53:35.580Z,15.30
2018-10-05T21:56:03.809Z,15.16
2018-10-05T21:58:31.978Z,15.13
2018-10-05T22:01:01.379Z,15.07
2018-10-05T22:03:30.682Z,15.06
2018-10-05T22:06:00.222Z,15.00
2018-10-05T22:08:28.366Z,14.99
2018-10-05T22:10:57.344Z,14.97
2018-10-05T22:13:25.584Z,15.07
2018-10-05T22:15:53.751Z,14.80
2018-10-05T22:18:22.022Z,14.95
2018-10-05T22:20:50.172Z,14.56
2018-10-05T22:23:18.418Z,14.82
2018-10-05T22:25:46.631Z,14.83
2018-10-05T22:28:14.800Z,14.86
2018-10-05T22:30:42.955Z,14.79
2018-10-05T22:33:11.165Z,14.86
2018-10-05T22:35:39.345Z,14.81
2018-10-05T22:38:07.717Z,14.82
2018-10-05T22:40:35.879Z,14.74
2018-10-05T22:43:04.050Z,14.82
2018-10-05T22:45:32.238Z,14.70
2018-10-05T22:48:00.409Z,14.67
2018-10-05T22:50:28.583Z,14.65
2018-10-05T22:52:56.794Z,14.72
2018-10-05T22:55:24.983Z,14.48
2018-10-05T22:57:53.156Z,14.60
2018-10-05T23:00:21.357Z,14.52
2018-10-05T23:02:49.536Z,14.42
2018-10-05T23:05:17.709Z,14.51
2018-10-05T23:07:45.899Z,14.21
2018-10-05T23:10:14.067Z,14.42
2018-10-05T23:12:42.245Z,14.32
2018-10-05T23:15:10.428Z,14.52
2018-10-05T23:17:38.589Z,14.38
2018-10-05T23:20:06.788Z,14.32
2018-10-05T23:22:34.949Z,14.32
2018-10-05T23:25:03.106Z,14.21
2018-10-05T23:27:31.265Z,14.32
2018-10-05T23:29:59.463Z,14.16
2018-10-05T23:32:27.639Z,14.27
2018-10-05T23:34:55.868Z,14.05
2018-10-05T23:40:15.453Z,13.99
2018-10-05T23:42:43.677Z,13.93
2018-10-05T23:45:11.926Z,13.94
2018-10-05T23:47:40.160Z,13.97
2018-10-05T23:50:08.406Z,13.85
2018-10-05T23:52:41.710Z,13.60
2018-10-05T23:55:09.951Z,13.77
2018-10-05T23:57:38.782Z,13.69
